This is the latest recevied weather packets stored in our database for station/object KC3QLX. If no packets are shown the sender has not sent any weather packets the latest 10 day(s).
| Time | Temp. | Humidity | Pressure | Rain* | Wind** | Luminosity | Snow |
|---|---|---|---|---|---|---|---|
| 1777724428 | 6.67° C | 87% | 1013.4 hPa | 0 mm | - | 101 W/m² | - |
| 1777724126 | 6.67° C | 85% | 1013.4 hPa | 0 mm | - | 108 W/m² | - |
| 1777723823 | 6.67° C | 89% | 1013.1 hPa | 0 mm | - | 113 W/m² | - |
| 1777723519 | 6.67° C | 90% | 1013.4 hPa | 0 mm | - | 114 W/m² | - |
| 1777723216 | 6.11° C | 85% | 1013.3 hPa | 0 mm | - | 138 W/m² | - |
| 1777722914 | 5.56° C | 87% | 1013.4 hPa | 0 mm | - | 115 W/m² | - |
| 1777722610 | 5.56° C | 89% | 1013.4 hPa | 0 mm | - | 110 W/m² | - |
| 1777722307 | 5.56° C | 93% | 1013.3 hPa | 0 mm | - | 72 W/m² | - |
| 1777722004 | 5.56° C | 91% | 1013.4 hPa | 0 mm | - | 58 W/m² | - |
| 1777721701 | 5.56° C | 90% | 1013.1 hPa | 0 mm | - | 51 W/m² | - |
| 1777721400 | 5.56° C | 90% | 1013.3 hPa | 0 mm | - | 42 W/m² | - |
| 1777721097 | 5.56° C | 90% | 1013.1 hPa | 0 mm | - | 40 W/m² | - |
| 1777720794 | 5.56° C | 91% | 1013.5 hPa | 0 mm | - | 44 W/m² | - |
| 1777720491 | 5.56° C | 91% | 1013.3 hPa | 0 mm | - | 52 W/m² | - |
| 1777720189 | 5.56° C | 91% | 1013.6 hPa | 0 mm | - | 52 W/m² | - |
| 1777719886 | 5.56° C | 91% | 1013.5 hPa | 0 mm | - | 55 W/m² | - |
| 1777719583 | 5.56° C | 93% | 1013.1 hPa | 0 mm | - | 58 W/m² | - |
| 1777719281 | 5.56° C | 93% | 1013.4 hPa | 0 mm | - | 50 W/m² | - |
| 1777718979 | 5° C | 93% | 1013 hPa | 0 mm | - | 48 W/m² | - |
| 1777718675 | 5° C | 95% | 1013.3 hPa | 0 mm | - | 32 W/m² | - |
| 1777718373 | 5.56° C | 96% | 1013.1 hPa | 0 mm | - | 15 W/m² | - |
| 1777718070 | 5° C | 98% | 1013 hPa | 0 mm | - | 8 W/m² | - |
| 1777717767 | 5.56° C | 99% | 1012.9 hPa | 0 mm | - | 9 W/m² | - |
| 1777717464 | 5.56° C | 99% | 1012.8 hPa | 0 mm | - | 4 W/m² | - |
| 1777717161 | 6.11° C | 99% | 1012.8 hPa | 0 mm | - | 1 W/m² | - |
* Rain latest hour (hover to see other rain measurements)
** Current wind speed in m/s (hover to see current wind gust speed)